createdAt,value
2018-11-22T00:00:28.671Z,85.28
2018-11-22T00:03:14.891Z,85.32
2018-11-22T00:05:41.611Z,85.55
2018-11-22T00:08:08.324Z,85.54
2018-11-22T00:10:35.064Z,85.48
2018-11-22T00:13:01.723Z,85.75
2018-11-22T00:15:28.341Z,85.67
2018-11-22T00:17:55.784Z,85.83
2018-11-22T00:20:22.460Z,85.81
2018-11-22T00:22:49.094Z,85.49
2018-11-22T00:25:16.078Z,85.59
2018-11-22T00:27:42.708Z,85.62
2018-11-22T00:30:28.969Z,85.53
2018-11-22T00:32:56.352Z,85.69
2018-11-22T00:35:23.038Z,85.73
2018-11-22T00:37:50.109Z,85.83
2018-11-22T00:40:18.378Z,85.58
2018-11-22T00:42:45.729Z,85.59
2018-11-22T00:45:13.795Z,85.96
2018-11-22T00:47:40.626Z,86.06
2018-11-22T00:50:09.236Z,86.10
2018-11-22T00:52:36.008Z,86.00
2018-11-22T00:55:02.668Z,86.24
2018-11-22T00:57:29.401Z,86.24
2018-11-22T00:59:56.056Z,86.47
2018-11-22T01:02:22.697Z,86.35
2018-11-22T01:04:49.382Z,86.57
2018-11-22T01:07:15.979Z,86.26
2018-11-22T01:09:42.660Z,86.24
2018-11-22T01:12:09.298Z,86.22
2018-11-22T01:14:35.930Z,86.04
2018-11-22T01:17:02.552Z,86.08
2018-11-22T01:19:29.254Z,86.14
2018-11-22T01:21:55.891Z,86.38
2018-11-22T01:24:22.568Z,86.27
2018-11-22T01:26:49.224Z,86.31
2018-11-22T01:29:16.244Z,86.36
2018-11-22T01:31:42.894Z,86.36
2018-11-22T01:34:09.599Z,86.18
2018-11-22T01:36:36.294Z,86.09
2018-11-22T01:39:04.904Z,86.25
2018-11-22T01:41:31.570Z,86.28
2018-11-22T01:43:58.191Z,86.28
2018-11-22T01:46:24.827Z,85.95
2018-11-22T01:48:51.461Z,86.27
2018-11-22T01:51:18.133Z,86.32
2018-11-22T01:53:44.783Z,86.28
2018-11-22T01:56:11.504Z,86.17
2018-11-22T01:58:38.127Z,86.10
2018-11-22T02:01:04.883Z,86.11
2018-11-22T02:03:31.517Z,86.33
2018-11-22T02:05:58.209Z,86.22
2018-11-22T02:08:24.762Z,86.06
2018-11-22T02:10:51.419Z,85.92
2018-11-22T02:13:18.049Z,85.69
2018-11-22T02:15:44.706Z,85.81
2018-11-22T02:18:11.428Z,86.02
2018-11-22T02:20:38.366Z,86.14
2018-11-22T02:23:05.039Z,85.86
2018-11-22T02:25:31.751Z,86.11
2018-11-22T02:27:58.388Z,86.11
2018-11-22T02:30:26.355Z,86.19
2018-11-22T02:32:54.435Z,86.15
2018-11-22T02:35:21.385Z,86.22
2018-11-22T02:37:48.112Z,85.98
2018-11-22T02:40:16.526Z,86.26
2018-11-22T02:42:43.868Z,86.47
2018-11-22T02:45:12.074Z,86.56
2018-11-22T02:47:39.206Z,87.06
2018-11-22T02:50:07.905Z,86.82
2018-11-22T02:52:34.562Z,86.77
2018-11-22T02:55:01.171Z,86.92
2018-11-22T02:57:27.818Z,87.04
2018-11-22T02:59:54.473Z,86.77
2018-11-22T03:02:21.187Z,86.63
2018-11-22T03:04:47.877Z,86.87
2018-11-22T03:07:14.553Z,87.15
2018-11-22T03:09:41.135Z,87.21
2018-11-22T03:12:07.798Z,87.42
2018-11-22T03:14:34.458Z,87.57
2018-11-22T03:17:01.079Z,87.37
2018-11-22T03:19:27.705Z,87.18
2018-11-22T03:21:54.592Z,87.17
2018-11-22T03:24:21.295Z,87.25
2018-11-22T03:26:47.935Z,87.21
2018-11-22T03:29:14.615Z,87.19
2018-11-22T03:31:41.216Z,87.20
2018-11-22T03:34:08.256Z,86.94
2018-11-22T03:36:34.908Z,87.25
2018-11-22T03:39:01.554Z,86.96
2018-11-22T03:41:28.179Z,86.70
2018-11-22T03:43:54.825Z,86.52
2018-11-22T03:46:21.487Z,86.51
2018-11-22T03:48:48.180Z,86.80
2018-11-22T03:51:14.870Z,86.53
2018-11-22T03:53:41.505Z,86.68
2018-11-22T03:56:08.420Z,86.64
2018-11-22T03:58:35.397Z,86.63
2018-11-22T04:01:02.021Z,86.50
2018-11-22T04:03:28.658Z,86.56
2018-11-22T04:05:55.333Z,86.35
2018-11-22T04:08:21.994Z,86.14
2018-11-22T04:10:48.628Z,86.05
2018-11-22T04:13:15.236Z,86.17
2018-11-22T04:15:41.929Z,85.98
2018-11-22T04:18:08.546Z,85.86
2018-11-22T04:20:35.263Z,85.83
2018-11-22T04:23:01.920Z,85.72
2018-11-22T04:25:28.683Z,85.95
2018-11-22T04:27:55.549Z,85.92
2018-11-22T04:30:23.722Z,85.88
2018-11-22T04:32:50.751Z,85.92
2018-11-22T04:35:18.314Z,85.79
2018-11-22T04:37:45.016Z,85.62
2018-11-22T04:40:13.435Z,85.65
2018-11-22T04:42:40.016Z,85.56
2018-11-22T04:45:07.025Z,85.41
2018-11-22T04:47:33.796Z,85.37
2018-11-22T04:50:00.474Z,85.29
2018-11-22T04:52:27.144Z,85.15
2018-11-22T04:54:53.786Z,85.06
2018-11-22T04:57:20.468Z,84.68
2018-11-22T04:59:47.139Z,84.62
2018-11-22T05:02:13.760Z,84.41
2018-11-22T05:04:40.374Z,84.47
2018-11-22T05:07:07.020Z,84.44
2018-11-22T05:09:33.635Z,84.48
2018-11-22T05:12:00.312Z,84.35
2018-11-22T05:14:26.943Z,84.22
2018-11-22T05:16:54.386Z,84.03
2018-11-22T05:19:20.992Z,84.12
2018-11-22T05:21:47.605Z,84.06
2018-11-22T05:24:14.259Z,84.00
2018-11-22T05:26:40.925Z,84.08
2018-11-22T05:29:12.403Z,83.92
2018-11-22T05:31:34.240Z,83.79
2018-11-22T05:34:00.948Z,83.94
2018-11-22T05:36:27.588Z,83.92
2018-11-22T05:38:54.240Z,84.15
2018-11-22T05:41:20.915Z,83.99
2018-11-22T05:43:47.583Z,84.01
2018-11-22T05:46:14.192Z,83.83
2018-11-22T05:48:40.858Z,83.81
2018-11-22T05:51:07.461Z,83.95
2018-11-22T05:53:34.091Z,83.98
2018-11-22T05:56:00.677Z,84.09
2018-11-22T05:58:27.305Z,84.23
2018-11-22T06:00:54.018Z,84.41
2018-11-22T06:03:20.659Z,84.26
2018-11-22T06:05:47.256Z,84.35
2018-11-22T06:08:13.917Z,84.42
2018-11-22T06:10:40.588Z,84.52
2018-11-22T06:13:07.343Z,84.54
2018-11-22T06:15:33.990Z,84.49
2018-11-22T06:18:01.184Z,84.58
2018-11-22T06:20:29.024Z,84.61
2018-11-22T06:22:56.242Z,84.73
2018-11-22T06:25:22.940Z,84.48
2018-11-22T06:27:50.141Z,84.44
2018-11-22T06:30:37.190Z,84.04
2018-11-22T06:33:03.957Z,84.13
2018-11-22T06:35:31.514Z,84.11
2018-11-22T06:37:58.222Z,84.26
2018-11-22T06:40:24.856Z,84.28
2018-11-22T06:42:52.454Z,84.45
2018-11-22T06:45:20.539Z,84.13
2018-11-22T06:47:47.248Z,83.92
2018-11-22T06:50:14.863Z,84.13
2018-11-22T06:52:41.503Z,84.00
2018-11-22T06:55:10.800Z,84.22
2018-11-22T06:57:37.469Z,84.25
2018-11-22T07:00:07.113Z,84.14
2018-11-22T07:02:33.737Z,84.28
2018-11-22T07:05:00.370Z,84.51
2018-11-22T07:07:26.982Z,84.51
2018-11-22T07:09:53.922Z,84.53
2018-11-22T07:12:20.573Z,84.73
2018-11-22T07:14:48.421Z,84.48
2018-11-22T07:17:15.115Z,84.24
2018-11-22T07:19:41.731Z,84.13
2018-11-22T07:22:08.399Z,84.33
2018-11-22T07:24:35.026Z,84.49
2018-11-22T07:27:01.722Z,84.73
2018-11-22T07:29:28.381Z,84.99
2018-11-22T07:31:55.099Z,85.07
2018-11-22T07:34:21.763Z,84.89
2018-11-22T07:36:48.464Z,84.89
2018-11-22T07:39:15.163Z,84.66
2018-11-22T07:41:41.801Z,84.58
2018-11-22T07:44:08.445Z,84.45
2018-11-22T07:46:35.066Z,84.42
2018-11-22T07:49:01.687Z,84.18
2018-11-22T07:51:28.383Z,84.06
2018-11-22T07:53:55.005Z,83.79
2018-11-22T07:56:21.676Z,83.61
2018-11-22T07:58:48.409Z,83.32
2018-11-22T08:01:15.065Z,83.35
2018-11-22T08:03:41.796Z,83.62
2018-11-22T08:06:08.437Z,83.15
2018-11-22T08:08:35.057Z,83.56
2018-11-22T08:11:01.731Z,83.24
2018-11-22T08:13:28.353Z,82.94
2018-11-22T08:15:54.990Z,82.50
2018-11-22T08:18:21.621Z,82.65
2018-11-22T08:20:48.255Z,82.50
2018-11-22T08:23:14.911Z,82.28
2018-11-22T08:25:41.526Z,82.32
2018-11-22T08:28:08.216Z,81.92
2018-11-22T08:30:34.899Z,82.11
2018-11-22T08:33:01.564Z,81.90
2018-11-22T08:35:28.253Z,81.87
2018-11-22T08:37:54.896Z,81.89
2018-11-22T08:40:23.027Z,81.95
2018-11-22T08:42:55.118Z,81.60
2018-11-22T08:45:17.843Z,81.66
2018-11-22T08:47:44.930Z,81.51
2018-11-22T08:50:31.280Z,81.83
2018-11-22T08:53:00.228Z,81.64
2018-11-22T08:55:46.483Z,81.73
2018-11-22T08:58:13.142Z,81.36
2018-11-22T09:00:40.807Z,81.35
2018-11-22T09:03:07.673Z,81.54
2018-11-22T09:05:35.708Z,81.24
2018-11-22T09:08:02.683Z,81.41
2018-11-22T09:10:29.714Z,81.28
2018-11-22T09:12:57.209Z,81.44
2018-11-22T09:15:31.220Z,81.34
2018-11-22T09:17:51.732Z,81.02
2018-11-22T09:20:19.876Z,81.31
2018-11-22T09:22:46.532Z,81.18
2018-11-22T09:25:14.004Z,81.37
2018-11-22T09:27:41.211Z,81.40
2018-11-22T09:30:13.409Z,81.24
2018-11-22T09:32:40.359Z,81.09
2018-11-22T09:35:07.373Z,80.95
2018-11-22T09:37:34.058Z,80.93
2018-11-22T09:40:00.672Z,80.69
2018-11-22T09:42:27.761Z,80.87
2018-11-22T09:44:54.333Z,81.27
2018-11-22T09:47:21.137Z,81.16
2018-11-22T09:49:47.855Z,81.03
2018-11-22T09:52:14.509Z,80.70
2018-11-22T09:54:41.197Z,79.98
2018-11-22T09:57:07.791Z,80.02
2018-11-22T09:59:34.489Z,79.98
2018-11-22T10:02:01.158Z,79.81
2018-11-22T10:04:27.822Z,79.37
2018-11-22T10:06:54.458Z,79.96
2018-11-22T10:09:21.233Z,79.90
2018-11-22T10:11:47.748Z,79.99
2018-11-22T10:14:14.491Z,80.14
2018-11-22T10:16:41.134Z,79.88
2018-11-22T10:19:07.769Z,80.26
2018-11-22T10:21:34.474Z,80.47
2018-11-22T10:24:01.114Z,80.64
2018-11-22T10:26:27.760Z,80.87
2018-11-22T10:28:54.419Z,80.36
2018-11-22T10:31:21.063Z,80.32
2018-11-22T10:33:47.753Z,80.16
2018-11-22T10:36:14.412Z,80.10
2018-11-22T10:38:41.032Z,80.14
2018-11-22T10:41:07.713Z,80.18
2018-11-22T10:43:34.388Z,80.35
2018-11-22T10:46:01.041Z,80.58
2018-11-22T10:48:27.667Z,80.37
2018-11-22T10:50:54.296Z,80.59
2018-11-22T10:53:20.892Z,80.68
2018-11-22T10:55:47.573Z,80.22
2018-11-22T10:58:14.201Z,80.42
2018-11-22T11:01:00.490Z,80.22
2018-11-22T11:03:46.699Z,80.09
2018-11-22T11:06:33.015Z,80.01
2018-11-22T11:09:00.247Z,80.24
2018-11-22T11:11:27.187Z,80.29
2018-11-22T11:13:54.008Z,80.20
2018-11-22T11:16:20.675Z,79.90
2018-11-22T11:18:47.350Z,79.91
2018-11-22T11:21:14.072Z,79.70
2018-11-22T11:23:40.722Z,79.29
2018-11-22T11:26:07.417Z,79.31
2018-11-22T11:28:34.092Z,79.62
2018-11-22T11:31:00.756Z,79.91
2018-11-22T11:33:27.549Z,79.65
2018-11-22T11:35:54.179Z,79.17
2018-11-22T11:38:20.885Z,79.47
2018-11-22T11:40:47.502Z,79.46
2018-11-22T11:43:14.136Z,79.69
2018-11-22T11:46:00.398Z,80.44
2018-11-22T11:48:27.065Z,80.71
2018-11-22T11:50:53.715Z,81.32
2018-11-22T11:53:25.127Z,81.28
2018-11-22T11:55:47.052Z,81.20
2018-11-22T11:58:13.767Z,81.41
2018-11-22T12:00:41.873Z,80.99
2018-11-22T12:03:08.564Z,81.08
2018-11-22T12:05:35.236Z,81.48
2018-11-22T12:08:01.959Z,81.88
2018-11-22T12:10:28.640Z,81.83
2018-11-22T12:12:55.282Z,81.61
2018-11-22T12:15:22.972Z,81.65
2018-11-22T12:17:49.653Z,81.66
2018-11-22T12:20:16.872Z,81.82
2018-11-22T12:22:44.810Z,81.70
2018-11-22T12:25:12.836Z,81.49
2018-11-22T12:27:39.985Z,80.96
2018-11-22T12:30:11.037Z,81.17
2018-11-22T12:32:57.290Z,80.79
2018-11-22T12:35:43.561Z,80.89
2018-11-22T12:38:29.809Z,80.85
2018-11-22T12:40:56.480Z,80.52
2018-11-22T12:43:23.499Z,80.29
2018-11-22T12:45:50.133Z,80.51
2018-11-22T12:48:16.791Z,80.76
2018-11-22T12:50:43.491Z,80.35
2018-11-22T12:53:10.125Z,80.18
2018-11-22T12:55:36.851Z,80.22
2018-11-22T12:58:03.469Z,79.89
2018-11-22T13:00:30.107Z,80.12
2018-11-22T13:02:56.734Z,80.12
2018-11-22T13:05:23.391Z,80.44
2018-11-22T13:07:50.039Z,80.55
2018-11-22T13:10:17.785Z,80.70
2018-11-22T13:12:45.671Z,80.89
2018-11-22T13:15:16.695Z,80.50
2018-11-22T13:17:43.370Z,80.68
2018-11-22T13:20:12.403Z,81.02
2018-11-22T13:22:38.100Z,80.78
2018-11-22T13:25:06.413Z,80.61
2018-11-22T13:27:33.111Z,80.73
2018-11-22T13:29:59.720Z,80.85
2018-11-22T13:32:26.357Z,80.90
2018-11-22T13:34:53.025Z,80.79
2018-11-22T13:37:19.763Z,80.51
2018-11-22T13:39:46.461Z,80.83
2018-11-22T13:42:13.173Z,80.95
2018-11-22T13:44:39.816Z,80.91
2018-11-22T13:47:06.450Z,80.93
2018-11-22T13:49:33.040Z,80.74
2018-11-22T13:51:59.674Z,80.86
2018-11-22T13:54:26.330Z,81.21
2018-11-22T13:56:53.086Z,81.31
2018-11-22T13:59:19.734Z,81.38
2018-11-22T14:01:46.344Z,81.47
2018-11-22T14:04:13.060Z,81.45
2018-11-22T14:06:39.694Z,81.70
2018-11-22T14:09:07.916Z,81.82
2018-11-22T14:11:34.625Z,81.63
2018-11-22T14:14:01.330Z,81.81
2018-11-22T14:16:28.045Z,81.76
2018-11-22T14:18:54.755Z,82.19
2018-11-22T14:21:21.397Z,82.16
2018-11-22T14:23:48.118Z,82.32
2018-11-22T14:26:14.698Z,82.24
2018-11-22T14:28:41.419Z,82.40
2018-11-22T14:31:08.142Z,82.44
2018-11-22T14:33:34.902Z,82.55
2018-11-22T14:36:01.621Z,82.72
2018-11-22T14:38:28.313Z,82.68
2018-11-22T14:40:54.940Z,82.81
2018-11-22T14:43:21.674Z,82.72
2018-11-22T14:45:48.302Z,83.00
2018-11-22T14:48:14.952Z,82.92
2018-11-22T14:51:05.705Z,82.81
2018-11-22T14:53:32.385Z,82.88
2018-11-22T14:56:18.655Z,82.92
2018-11-22T14:58:45.333Z,82.91
2018-11-22T15:01:12.009Z,83.17
2018-11-22T15:03:38.727Z,82.98
2018-11-22T15:06:05.384Z,82.98
2018-11-22T15:08:32.076Z,82.98
2018-11-22T15:10:58.729Z,83.01
2018-11-22T15:13:25.383Z,83.25
2018-11-22T15:15:52.160Z,83.09
2018-11-22T15:18:18.797Z,83.15
2018-11-22T15:20:45.432Z,83.13
2018-11-22T15:23:12.059Z,83.09
2018-11-22T15:25:38.744Z,83.20
2018-11-22T15:28:05.406Z,83.21
2018-11-22T15:30:32.061Z,83.33
2018-11-22T15:32:59.076Z,83.55
2018-11-22T15:35:27.159Z,83.62
2018-11-22T15:37:54.136Z,83.75
2018-11-22T15:40:22.052Z,83.50
2018-11-22T15:42:50.183Z,83.67
2018-11-22T15:45:18.150Z,83.62
2018-11-22T15:47:45.082Z,83.56
2018-11-22T15:50:13.114Z,83.60
2018-11-22T15:52:39.982Z,83.66
2018-11-22T15:55:20.780Z,83.61
2018-11-22T15:57:42.266Z,83.61
2018-11-22T16:00:29.988Z,83.95
2018-11-22T16:02:57.163Z,84.00
2018-11-22T16:05:24.709Z,83.89
2018-11-22T16:07:51.359Z,83.99
2018-11-22T16:10:26.347Z,84.05
2018-11-22T16:12:47.732Z,83.98
2018-11-22T16:15:54.178Z,83.98
2018-11-22T16:18:20.889Z,83.96
2018-11-22T16:20:47.712Z,84.28
2018-11-22T16:26:00.803Z,84.24
2018-11-22T16:28:27.471Z,84.30
2018-11-22T16:30:54.197Z,84.19
2018-11-22T16:33:20.861Z,84.36
2018-11-22T16:35:47.562Z,84.35
2018-11-22T16:38:14.170Z,84.48
2018-11-22T16:40:40.779Z,84.59
2018-11-22T16:43:07.384Z,84.34
2018-11-22T16:45:35.251Z,84.18
2018-11-22T16:48:03.623Z,84.43
2018-11-22T16:50:31.287Z,84.35
2018-11-22T16:52:57.898Z,84.60
2018-11-22T16:55:25.316Z,84.60
2018-11-22T16:57:52.831Z,84.60
2018-11-22T17:00:40.119Z,84.67
2018-11-22T17:03:08.590Z,85.03
2018-11-22T17:05:35.693Z,84.56
2018-11-22T17:08:03.074Z,84.86
2018-11-22T17:10:30.570Z,84.94
2018-11-22T17:12:58.406Z,84.45
2018-11-22T17:15:26.502Z,84.26
2018-11-22T17:17:53.795Z,83.98
2018-11-22T17:20:21.280Z,84.06
2018-11-22T17:22:49.336Z,83.90
2018-11-22T17:25:17.218Z,83.67
2018-11-22T17:27:45.717Z,83.73
2018-11-22T17:30:33.448Z,83.75
2018-11-22T17:33:00.656Z,83.65
2018-11-22T17:35:28.662Z,83.86
2018-11-22T17:37:59.464Z,83.86
2018-11-22T17:40:36.892Z,83.64
2018-11-22T17:43:03.807Z,83.90
2018-11-22T17:45:32.235Z,83.91
2018-11-22T17:47:58.907Z,83.83
2018-11-22T17:50:46.364Z,84.04
2018-11-22T17:53:13.344Z,84.00
2018-11-22T17:55:40.329Z,84.58
2018-11-22T17:58:08.723Z,84.69
2018-11-22T18:00:36.912Z,84.68
2018-11-22T18:03:04.813Z,84.72
2018-11-22T18:05:32.656Z,84.46
2018-11-22T18:08:00.227Z,84.85
2018-11-22T18:10:32.164Z,85.22
2018-11-22T18:12:59.323Z,85.06
2018-11-22T18:15:26.558Z,84.76
2018-11-22T18:17:54.054Z,84.89
2018-11-22T18:20:22.742Z,84.89
2018-11-22T18:22:51.641Z,85.43
2018-11-22T18:25:19.683Z,85.26
2018-11-22T18:27:46.350Z,85.86
2018-11-22T18:30:33.991Z,85.51
2018-11-22T18:33:02.067Z,85.74
2018-11-22T18:35:30.633Z,85.69
2018-11-22T18:37:57.156Z,85.85
2018-11-22T18:40:25.153Z,86.40
2018-11-22T18:42:53.106Z,86.81
2018-11-22T18:45:39.378Z,86.81
2018-11-22T18:48:07.243Z,86.85
2018-11-22T18:50:34.559Z,86.66
2018-11-22T18:53:01.227Z,86.61
2018-11-22T18:55:27.854Z,86.75
2018-11-22T18:57:54.469Z,86.55
2018-11-22T19:00:41.229Z,86.85
2018-11-22T19:03:09.450Z,87.08
2018-11-22T19:05:36.130Z,87.56
2018-11-22T19:08:02.744Z,87.53
2018-11-22T19:10:48.937Z,87.39
2018-11-22T19:13:15.622Z,87.56
2018-11-22T19:16:01.831Z,87.99
2018-11-22T19:18:28.446Z,87.28
2018-11-22T19:20:55.047Z,88.46
2018-11-22T19:23:21.666Z,87.53
2018-11-22T19:25:48.262Z,87.66
2018-11-22T19:28:14.863Z,87.74
2018-11-22T19:30:42.885Z,87.26
2018-11-22T19:33:11.033Z,87.72
2018-11-22T19:35:57.241Z,87.84
2018-11-22T19:38:23.870Z,88.45
2018-11-22T19:40:50.407Z,88.82
2018-11-22T19:43:17.015Z,88.33
2018-11-22T19:45:45.206Z,88.34
2018-11-22T19:48:11.815Z,88.70
2018-11-22T19:50:38.399Z,89.29
2018-11-22T19:53:06.673Z,89.76
2018-11-22T19:55:41.374Z,89.09
2018-11-22T19:58:09.366Z,88.93
2018-11-22T20:00:36.043Z,89.97
2018-11-22T20:03:03.796Z,89.19
2018-11-22T20:05:31.639Z,89.33
2018-11-22T20:07:59.620Z,88.83
2018-11-22T20:10:27.789Z,89.33
2018-11-22T20:12:54.375Z,89.13
2018-11-22T20:15:20.973Z,88.97
2018-11-22T20:17:48.157Z,89.12
2018-11-22T20:20:15.767Z,89.47
2018-11-22T20:22:42.414Z,89.24
2018-11-22T20:25:09.579Z,88.86
2018-11-22T20:27:36.510Z,89.08
2018-11-22T20:30:05.819Z,88.63
2018-11-22T20:32:38.698Z,88.90
2018-11-22T20:34:59.038Z,88.88
2018-11-22T20:37:25.620Z,89.10
2018-11-22T20:39:52.254Z,89.60
2018-11-22T20:42:18.846Z,88.88
2018-11-22T20:44:45.460Z,88.99
2018-11-22T20:47:12.046Z,88.91
2018-11-22T20:49:38.680Z,89.25
2018-11-22T20:52:05.272Z,88.76
2018-11-22T20:54:31.862Z,88.87
2018-11-22T20:56:58.454Z,89.23
2018-11-22T20:59:25.081Z,89.31
2018-11-22T21:01:51.871Z,89.28
2018-11-22T21:04:18.301Z,88.96
2018-11-22T21:06:44.891Z,89.21
2018-11-22T21:09:11.490Z,89.06
2018-11-22T21:11:43.384Z,89.47
2018-11-22T21:14:05.951Z,88.86
2018-11-22T21:16:32.557Z,88.91
2018-11-22T21:18:59.136Z,89.00
2018-11-22T21:21:25.752Z,89.20
2018-11-22T21:23:52.355Z,89.40
2018-11-22T21:26:18.959Z,89.50
2018-11-22T21:28:45.546Z,89.85
2018-11-22T21:31:12.163Z,89.95
2018-11-22T21:33:38.750Z,89.61
2018-11-22T21:36:05.367Z,89.68
2018-11-22T21:38:31.943Z,89.67
2018-11-22T21:40:58.543Z,90.02
2018-11-22T21:43:25.132Z,89.80
2018-11-22T21:45:51.730Z,89.66
2018-11-22T21:48:18.335Z,90.08
2018-11-22T21:50:44.947Z,90.18
2018-11-22T21:53:11.547Z,90.16
2018-11-22T21:55:38.194Z,90.35
2018-11-22T21:58:04.890Z,90.46
2018-11-22T22:00:34.281Z,90.28
2018-11-22T22:03:02.430Z,90.23
2018-11-22T22:05:29.012Z,89.97
2018-11-22T22:07:55.624Z,90.22
2018-11-22T22:10:22.218Z,90.04
2018-11-22T22:12:48.831Z,90.24
2018-11-22T22:15:16.852Z,89.74
2018-11-22T22:17:44.226Z,90.01
2018-11-22T22:20:13.099Z,90.00
2018-11-22T22:22:40.279Z,90.33
2018-11-22T22:25:08.516Z,90.09
2018-11-22T22:27:35.398Z,90.52
2018-11-22T22:30:01.995Z,90.74
2018-11-22T22:32:28.605Z,90.78
2018-11-22T22:34:55.194Z,90.95
2018-11-22T22:37:21.816Z,90.65
2018-11-22T22:39:48.415Z,90.75
2018-11-22T22:42:15.014Z,90.37
2018-11-22T22:44:41.606Z,90.48
2018-11-22T22:47:08.210Z,90.48
2018-11-22T22:49:34.823Z,90.33
2018-11-22T22:52:01.432Z,90.28
2018-11-22T22:54:28.054Z,90.51
2018-11-22T22:56:54.652Z,90.80
2018-11-22T22:59:21.250Z,90.91
2018-11-22T23:01:47.866Z,91.08
2018-11-22T23:04:14.464Z,91.00
2018-11-22T23:06:41.071Z,91.18
2018-11-22T23:09:09.274Z,90.67
2018-11-22T23:11:35.907Z,91.00
2018-11-22T23:14:02.489Z,91.10
2018-11-22T23:16:29.140Z,90.84
2018-11-22T23:18:55.740Z,91.04
2018-11-22T23:21:22.338Z,91.24
2018-11-22T23:23:48.918Z,91.38
2018-11-22T23:26:16.222Z,91.18
2018-11-22T23:28:43.964Z,90.97
2018-11-22T23:31:11.717Z,90.86
2018-11-22T23:33:38.539Z,91.20
2018-11-22T23:36:05.135Z,90.99
2018-11-22T23:38:33.148Z,91.05
2018-11-22T23:41:01.026Z,91.00
2018-11-22T23:43:28.809Z,91.08
2018-11-22T23:45:55.366Z,91.37
2018-11-22T23:48:21.965Z,91.16
2018-11-22T23:50:48.967Z,91.29
2018-11-22T23:53:15.552Z,91.27
2018-11-22T23:55:42.173Z,91.04
2018-11-22T23:58:08.776Z,91.20
